Time;durP1;ratioP1;P1;durP2;ratioP2;P2;SDS_P1;SDS_P2;PMS_P1;PMS_P2;Temp;Humidity;BMP_temperature;BMP_pressure;BME280_temperature;BME280_humidity;BME280_pressure;Samples;Min_cycle;Max_cycle;Signal;HPM_P1;HPM_P2
2021/08/21 00:02:10;;;;;;;14.55;10.38;;;;;;;15.66;75.90;97418.89;1667786;83;27870;-86
2021/08/21 00:04:37;;;;;;;13.40;9.43;;;;;;;15.64;75.89;97415.05;1652663;85;25617;-86
2021/08/21 00:07:06;;;;;;;13.45;9.30;;;;;;;15.65;75.89;97419.96;1667377;83;25457;-85
2021/08/21 00:09:37;;;;;;;12.25;9.53;;;;;;;15.64;75.92;97421.02;1677177;85;25324;-85
2021/08/21 00:12:06;;;;;;;14.30;9.18;;;;;;;15.60;75.95;97422.57;1683966;84;25525;-84
2021/08/21 00:14:34;;;;;;;16.95;9.83;;;;;;;15.53;75.95;97424.05;1681847;85;27335;-84
2021/08/21 00:17:03;;;;;;;13.60;10.55;;;;;;;15.52;76.10;97425.13;1683119;84;25799;-84
2021/08/21 00:19:32;;;;;;;13.05;10.18;;;;;;;15.50;76.16;97428.08;1643014;86;25598;-85
2021/08/21 00:21:58;;;;;;;13.28;9.98;;;;;;;15.51;76.22;97424.83;1675719;85;25509;-84
2021/08/21 00:24:25;;;;;;;13.93;9.80;;;;;;;15.50;76.27;97425.36;1684100;85;25505;-85
2021/08/21 00:26:54;;;;;;;12.75;8.93;;;;;;;15.48;76.33;97417.97;1681395;85;26654;-85
2021/08/21 00:29:21;;;;;;;14.25;9.18;;;;;;;15.49;76.43;97427.78;1645887;84;25546;-85
2021/08/21 00:31:48;;;;;;;11.78;8.63;;;;;;;15.52;76.45;97429.73;1684263;84;25486;-85
2021/08/21 00:34:15;;;;;;;14.00;8.40;;;;;;;15.53;76.47;97428.67;1677935;84;25953;-86
2021/08/21 00:36:45;;;;;;;9.95;7.53;;;;;;;15.54;76.46;97433.05;1656513;84;25512;-85
2021/08/21 00:39:13;;;;;;;11.88;8.30;;;;;;;15.55;76.42;97426.57;1630064;86;27386;-85
2021/08/21 00:41:40;;;;;;;14.68;9.45;;;;;;;15.55;76.40;97430.66;1671199;84;25578;-85
2021/08/21 00:44:07;;;;;;;13.38;8.78;;;;;;;15.55;76.42;97427.93;1674060;84;26156;-85
2021/08/21 00:47:17;;;;;;;13.60;8.40;;;;;;;15.55;76.44;97421.12;1651735;85;32381;-85
2021/08/21 00:49:59;;;;;;;10.00;7.95;;;;;;;15.56;76.44;97429.59;1653310;85;25575;-85
2021/08/21 00:52:29;;;;;;;13.22;8.38;;;;;;;15.54;76.52;97424.88;1683812;85;27707;-85
2021/08/21 00:55:02;;;;;;;10.40;8.03;;;;;;;15.49;76.60;97425.59;1641808;86;25611;-86
2021/08/21 00:57:35;;;;;;;11.90;8.48;;;;;;;15.47;76.65;97420.39;1665122;84;25512;-85
2021/08/21 01:00:03;;;;;;;15.23;7.50;;;;;;;15.48;76.65;97419.86;1683874;84;25648;-85
2021/08/21 01:02:32;;;;;;;11.30;7.92;;;;;;;15.49;76.62;97419.63;1683915;84;25615;-86
2021/08/21 01:05:03;;;;;;;12.85;8.20;;;;;;;15.48;76.63;97413.89;1684132;84;27460;-84
2021/08/21 01:07:34;;;;;;;;;;;;;;;15.45;76.60;97408.95;1685140;85;25593;-85
2021/08/21 01:10:11;;;;;;;14.38;7.83;;;;;;;15.47;76.77;97416.84;1682105;83;25475;-86
2021/08/21 01:12:39;;;;;;;11.25;8.30;;;;;;;15.45;76.75;97414.40;1682584;83;26552;-86
2021/08/21 01:15:09;;;;;;;11.80;7.53;;;;;;;15.46;76.75;97416.02;1658830;85;25549;-85
2021/08/21 01:17:36;;;;;;;9.78;7.42;;;;;;;15.46;76.77;97420.10;1681332;85;27424;-85
2021/08/21 01:20:06;;;;;;;12.58;7.72;;;;;;;15.46;76.71;97420.63;1679297;83;25597;-85
2021/08/21 01:22:33;;;;;;;10.00;7.58;;;;;;;15.47;76.71;97423.12;1677211;84;25689;-86
2021/08/21 01:25:00;;;;;;;10.53;7.37;;;;;;;15.47;76.73;97420.39;1683296;83;26104;-85
2021/08/21 01:27:31;;;;;;;10.10;7.70;;;;;;;15.46;76.70;97416.02;1654405;85;25525;-84
2021/08/21 01:30:01;;;;;;;10.00;7.53;;;;;;;15.47;76.73;97415.48;1682183;84;26058;-85
2021/08/21 01:32:29;;;;;;;10.28;7.62;;;;;;;15.46;76.78;97413.83;1681329;83;25438;-85
2021/08/21 01:34:58;;;;;;;10.88;7.87;;;;;;;15.46;76.84;97415.19;1686810;83;25600;-85
2021/08/21 01:37:28;;;;;;;8.90;7.12;;;;;;;15.45;76.87;97415.76;1681498;83;25737;-85
2021/08/21 01:39:59;;;;;;;11.43;7.17;;;;;;;15.47;76.88;97417.67;1681138;83;33142;-86
2021/08/21 01:42:26;;;;;;;8.30;6.78;;;;;;;15.48;76.84;97417.97;1682007;83;27883;-86
2021/08/21 01:44:55;;;;;;;11.65;7.53;;;;;;;15.48;76.79;97413.89;1682452;84;25628;-86
2021/08/21 01:47:24;;;;;;;10.48;7.45;;;;;;;15.47;76.75;97410.88;1652378;85;25605;-87
2021/08/21 01:49:56;;;;;;;10.00;6.95;;;;;;;15.46;76.71;97409.22;1681133;84;25465;-85
2021/08/21 01:52:28;;;;;;;10.25;7.28;;;;;;;15.45;76.69;97414.40;1682585;83;25229;-84
2021/08/21 01:54:54;;;;;;;10.28;7.83;;;;;;;15.44;76.75;97414.63;1682346;85;27369;-85
2021/08/21 01:57:22;;;;;;;10.30;7.40;;;;;;;15.40;76.80;97412.92;1683430;83;25601;-85
2021/08/21 01:59:52;;;;;;;15.10;7.80;;;;;;;15.40;76.82;97419.72;1697411;83;25494;-85
2021/08/21 02:02:22;;;;;;;11.38;7.12;;;;;;;15.38;76.90;97420.49;1658072;84;25784;-84
2021/08/21 02:04:49;;;;;;;11.05;7.20;;;;;;;15.36;76.94;97419.91;1682503;84;25509;-85
2021/08/21 02:07:16;;;;;;;8.33;6.80;;;;;;;15.34;76.99;97411.69;1681426;84;27368;-84
2021/08/21 02:09:43;;;;;;;11.90;7.12;;;;;;;15.34;76.98;97422.56;1681951;84;25476;-85
2021/08/21 02:12:15;;;;;;;9.78;7.55;;;;;;;15.31;77.03;97415.73;1653002;85;25504;-85
2021/08/21 02:14:40;;;;;;;9.23;7.00;;;;;;;15.31;77.05;97418.45;1678623;84;25705;-85
2021/08/21 02:17:07;;;;;;;13.48;7.05;;;;;;;15.30;77.05;97414.08;1669452;84;25566;-85
2021/08/21 02:19:33;;;;;;;14.28;7.65;;;;;;;15.23;76.94;97413.91;1683572;84;27279;-85
2021/08/21 02:22:07;;;;;;;7.58;6.58;;;;;;;15.21;77.07;97409.27;1683408;84;25537;-85
2021/08/21 02:24:35;;;;;;;9.25;6.80;;;;;;;15.21;77.18;97411.98;1681550;85;26060;-85
2021/08/21 02:27:05;;;;;;;8.50;7.17;;;;;;;15.19;77.23;97410.86;1649635;84;25675;-85
2021/08/21 02:29:31;;;;;;;10.30;7.10;;;;;;;15.17;77.19;97408.91;1683869;84;25987;-86
2021/08/21 02:31:59;;;;;;;11.68;8.03;;;;;;;15.16;77.26;97399.11;1684344;84;27342;-86
2021/08/21 02:34:30;;;;;;;10.55;7.58;;;;;;;15.16;77.21;97407.27;1664277;84;25638;-85
2021/08/21 02:36:58;;;;;;;15.55;7.97;;;;;;;15.15;77.25;97408.33;1646539;86;25546;-85
2021/08/21 02:39:25;;;;;;;13.70;8.05;;;;;;;15.15;77.29;97402.89;1659924;84;25771;-85
2021/08/21 02:41:52;;;;;;;10.65;7.85;;;;;;;15.14;77.31;97406.67;1684365;84;25686;-84
2021/08/21 02:44:21;;;;;;;10.55;7.22;;;;;;;15.13;77.34;97406.38;1683643;85;27411;-85
2021/08/21 02:46:48;;;;;;;10.10;7.50;;;;;;;15.13;77.39;97410.45;1683588;84;25484;-84
2021/08/21 02:49:17;;;;;;;9.05;7.25;;;;;;;15.12;77.35;97411.52;1672011;84;25261;-84
2021/08/21 02:51:44;;;;;;;10.28;7.28;;;;;;;15.11;77.40;97411.22;1658461;84;25642;-85
2021/08/21 02:54:13;;;;;;;10.08;7.45;;;;;;;15.04;77.42;97402.38;1683757;84;25545;-85
2021/08/21 02:56:40;;;;;;;11.28;7.75;;;;;;;15.04;77.55;97407.82;1684290;84;27503;-85
2021/08/21 02:59:07;;;;;;;11.35;7.22;;;;;;;15.06;77.59;97412.48;1683668;84;25547;-85
2021/08/21 03:01:33;;;;;;;14.73;7.45;;;;;;;15.06;77.62;97410.59;1671636;84;25435;-85
2021/08/21 03:04:02;;;;;;;10.13;6.72;;;;;;;15.05;77.60;97410.83;1630040;86;25591;-84
2021/08/21 03:06:29;;;;;;;7.97;6.75;;;;;;;15.04;77.62;97415.97;1653669;86;25447;-85
2021/08/21 03:08:55;;;;;;;13.58;7.45;;;;;;;15.02;77.60;97415.38;1639438;84;27407;-85
2021/08/21 03:11:22;;;;;;;10.68;7.20;;;;;;;15.01;77.65;97417.27;1679819;84;25600;-84
2021/08/21 03:13:48;;;;;;;9.40;7.10;;;;;;;14.99;77.65;97414.49;1638554;86;25591;-84
2021/08/21 03:16:15;;;;;;;10.25;7.65;;;;;;;14.96;77.63;97417.19;1666567;84;26002;-85
2021/08/21 03:18:42;;;;;;;10.90;7.05;;;;;;;14.96;77.63;97423.15;1693255;84;25600;-84
2021/08/21 03:21:09;;;;;;;11.03;7.35;;;;;;;14.81;77.62;97402.42;1693346;84;27344;-84
2021/08/21 03:23:38;;;;;;;11.73;6.97;;;;;;;14.93;77.60;97420.90;1693105;84;25506;-85
2021/08/21 03:26:07;;;;;;;7.45;6.55;;;;;;;14.90;77.59;97418.65;1693294;84;25473;-85
2021/08/21 03:28:37;;;;;;;8.50;6.60;;;;;;;14.88;77.56;97422.13;1692977;84;25668;-84
2021/08/21 03:31:06;;;;;;;9.85;7.05;;;;;;;14.83;77.54;97423.40;1663170;84;25302;-84
2021/08/21 03:33:35;;;;;;;8.55;7.40;;;;;;;14.80;77.61;97419.79;1692887;84;27386;-84
2021/08/21 03:36:03;;;;;;;9.60;6.42;;;;;;;14.75;77.64;97428.11;1693012;84;25456;-85
2021/08/21 03:38:30;;;;;;;11.22;6.90;;;;;;;14.70;77.66;97429.38;1693116;84;25229;-84
2021/08/21 03:40:57;;;;;;;9.55;7.22;;;;;;;14.68;77.80;97431.50;1693133;84;25633;-85
2021/08/21 03:43:23;;;;;;;11.05;6.60;;;;;;;14.66;77.86;97430.07;1663674;84;25640;-84
2021/08/21 03:45:52;;;;;;;8.35;6.87;;;;;;;14.66;77.90;97434.14;1655093;84;26140;-85
2021/08/21 03:48:20;;;;;;;8.80;6.92;;;;;;;14.65;77.90;97437.39;1693027;84;25450;-85
2021/08/21 03:50:53;;;;;;;11.60;7.37;;;;;;;14.66;77.94;97440.41;1688657;84;25197;-85
2021/08/21 03:53:22;;;;;;;9.23;7.12;;;;;;;14.67;77.96;97435.80;1658074;84;25772;-85
2021/08/21 03:55:49;;;;;;;9.13;6.70;;;;;;;14.69;77.96;97444.55;1682354;84;25514;-85
2021/08/21 03:58:16;;;;;;;14.00;7.03;;;;;;;14.69;77.96;97442.66;1691115;84;27350;-85
2021/08/21 04:00:44;;;;;;;8.15;7.00;;;;;;;14.69;77.99;97449.45;1664681;84;25485;-85
2021/08/21 04:03:14;;;;;;;9.00;6.78;;;;;;;14.69;78.05;97452.17;1657477;85;25245;-85
2021/08/21 04:05:42;;;;;;;11.30;7.25;;;;;;;14.68;78.10;97451.88;1657607;84;25647;-85
2021/08/21 04:08:10;;;;;;;8.80;7.20;;;;;;;14.69;78.18;97448.09;1640516;84;26045;-85
2021/08/21 04:10:39;;;;;;;8.30;7.10;;;;;;;14.71;78.26;97451.41;1664463;84;26441;-85
2021/08/21 04:13:06;;;;;;;8.40;5.95;;;;;;;14.72;78.31;97455.78;1660652;86;25575;-85
2021/08/21 04:15:32;;;;;;;11.50;7.28;;;;;;;14.75;78.31;97455.28;1664135;86;25590;-85
2021/08/21 04:18:02;;;;;;;10.20;6.40;;;;;;;14.77;78.30;97457.77;1661715;84;25695;-85
2021/08/21 04:20:29;;;;;;;8.25;6.37;;;;;;;14.78;78.33;97462.14;1685432;84;25533;-85
2021/08/21 04:22:57;;;;;;;10.25;6.62;;;;;;;14.77;78.37;97463.20;1719095;83;27954;-85
2021/08/21 04:25:24;;;;;;;11.85;7.35;;;;;;;14.80;78.40;97457.83;1700972;82;25589;-86
2021/08/21 04:27:52;;;;;;;12.20;7.87;;;;;;;14.82;78.46;97463.86;1700787;82;25465;-85
2021/08/21 04:30:19;;;;;;;10.80;7.25;;;;;;;14.85;78.48;97465.58;1695291;83;25635;-85
2021/08/21 04:32:48;;;;;;;10.25;7.87;;;;;;;14.91;78.55;97465.16;1697881;84;25567;-86
2021/08/21 04:35:15;;;;;;;14.05;7.37;;;;;;;14.95;78.57;97467.70;1703362;82;27162;-86
2021/08/21 04:37:42;;;;;;;11.55;8.03;;;;;;;14.99;78.58;97466.14;1710227;83;25501;-86
2021/08/21 04:40:12;;;;;;;12.23;9.20;;;;;;;15.01;78.48;97468.09;1694522;83;25488;-85
2021/08/21 04:42:39;;;;;;;16.45;8.88;;;;;;;15.04;78.55;97472.53;1697627;84;26178;-85
2021/08/21 04:45:10;;;;;;;12.45;9.13;;;;;;;15.06;78.49;97470.94;1701067;82;25561;-86
2021/08/21 04:47:37;;;;;;;15.18;8.43;;;;;;;15.09;78.52;97468.55;1701177;82;27311;-85
2021/08/21 04:50:09;;;;;;;14.70;8.48;;;;;;;15.13;78.46;97474.34;1697549;83;25220;-84
2021/08/21 04:52:36;;;;;;;11.35;8.40;;;;;;;15.16;78.41;97477.95;1695667;84;25488;-85
2021/08/21 04:55:04;;;;;;;20.72;9.93;;;;;;;15.19;78.37;97480.20;1700912;82;25665;-86
2021/08/21 04:57:32;;;;;;;14.40;9.73;;;;;;;15.21;78.42;97483.52;1696621;82;25549;-85
2021/08/21 04:59:59;;;;;;;14.13;8.93;;;;;;;15.24;78.41;97483.55;1700842;82;27428;-85
2021/08/21 05:02:26;;;;;;;16.20;9.70;;;;;;;15.25;78.41;97484.67;1700879;82;26058;-85
2021/08/21 05:04:54;;;;;;;14.63;9.33;;;;;;;15.15;78.37;97457.27;1698821;83;25473;-86
2021/08/21 05:07:21;;;;;;;15.08;8.60;;;;;;;15.31;78.37;97483.73;1695847;84;25772;-86
2021/08/21 05:09:48;;;;;;;16.70;9.50;;;;;;;15.34;78.35;97479.14;1699357;82;25390;-86
2021/08/21 05:12:18;;;;;;;19.57;10.00;;;;;;;15.37;78.36;97480.03;1685154;84;27247;-86
2021/08/21 05:14:44;;;;;;;17.50;9.88;;;;;;;15.40;78.30;97478.20;1689527;84;25519;-86
2021/08/21 05:17:11;;;;;;;12.75;8.65;;;;;;;15.41;78.24;97487.19;1683888;84;25229;-86
2021/08/21 05:19:41;;;;;;;15.20;9.28;;;;;;;15.41;78.18;97483.94;1663036;84;26399;-85
2021/08/21 05:22:24;;;;;;;15.53;8.48;;;;;;;15.41;78.10;97482.58;1684861;84;26296;-85
2021/08/21 05:24:51;;;;;;;13.85;8.53;;;;;;;15.45;78.14;97496.53;1684246;83;27409;-85
2021/08/21 05:27:20;;;;;;;14.45;9.13;;;;;;;15.49;78.12;97496.33;1686120;84;25585;-86
2021/08/21 05:29:47;;;;;;;13.00;8.60;;;;;;;15.53;78.03;97499.41;1662806;84;25481;-85
2021/08/21 05:32:14;;;;;;;13.03;8.50;;;;;;;15.55;77.98;97506.83;1688072;85;26086;-85
2021/08/21 05:34:41;;;;;;;13.75;8.35;;;;;;;15.59;77.87;97505.26;1666488;84;25506;-85
2021/08/21 05:37:08;;;;;;;12.82;9.25;;;;;;;15.63;77.82;97503.72;1690366;84;27429;-87
2021/08/21 05:39:37;;;;;;;12.15;8.33;;;;;;;15.67;77.74;97511.70;1688127;84;25559;-87
2021/08/21 05:42:04;;;;;;;16.95;8.63;;;;;;;15.68;77.78;97507.92;1688136;84;25555;-87
2021/08/21 05:44:31;;;;;;;15.43;8.35;;;;;;;15.67;77.82;97509.81;1691090;84;26085;-86
2021/08/21 05:46:58;;;;;;;12.25;9.05;;;;;;;15.69;77.89;97509.58;1629844;85;25565;-86
2021/08/21 05:49:27;;;;;;;15.68;9.65;;;;;;;15.70;78.03;97512.03;1675827;84;27332;-87
2021/08/21 05:52:01;;;;;;;13.62;9.58;;;;;;;15.75;78.04;97512.67;1657218;86;25724;-87
2021/08/21 05:54:28;;;;;;;18.10;10.85;;;;;;;15.82;78.11;97514.71;1656883;86;25246;-87
2021/08/21 05:56:59;;;;;;;15.13;9.80;;;;;;;15.91;78.05;97516.53;1686053;83;26165;-85
2021/08/21 05:59:30;;;;;;;16.20;11.22;;;;;;;15.99;77.91;97519.69;1702836;83;26070;-86
2021/08/21 06:01:53;;;;;;;15.43;9.88;;;;;;;16.04;77.82;97518.44;1687913;82;27365;-86
2021/08/21 06:04:20;;;;;;;15.95;10.35;;;;;;;16.10;77.71;97516.09;1687936;84;25548;-86
2021/08/21 06:06:48;;;;;;;13.60;9.50;;;;;;;16.14;77.66;97517.27;1688133;84;25561;-86
2021/08/21 06:09:19;;;;;;;12.88;9.33;;;;;;;16.20;77.57;97518.99;1688216;84;25677;-86
2021/08/21 06:11:44;;;;;;;11.80;9.08;;;;;;;16.28;77.47;97524.60;1676456;85;25526;-86
2021/08/21 06:14:10;;;;;;;12.43;8.93;;;;;;;16.35;77.35;97520.34;1653979;86;27343;-86
2021/08/21 06:16:37;;;;;;;17.65;8.85;;;;;;;16.41;77.26;97526.20;1669610;85;25514;-87
2021/08/21 06:19:07;;;;;;;15.80;10.00;;;;;;;16.49;77.24;97524.42;1676661;85;25537;-86
2021/08/21 06:21:33;;;;;;;12.35;9.10;;;;;;;16.57;77.13;97525.37;1678131;85;26045;-86
2021/08/21 06:24:00;;;;;;;14.13;9.25;;;;;;;16.67;77.09;97524.73;1682115;84;25516;-87
2021/08/21 06:26:28;;;;;;;14.63;9.35;;;;;;;16.72;77.06;97518.84;1678091;84;26036;-87
2021/08/21 06:28:58;;;;;;;13.08;8.95;;;;;;;16.78;77.03;97526.05;1696776;83;25553;-88
2021/08/21 06:31:25;;;;;;;12.78;8.38;;;;;;;16.84;76.99;97522.85;1675052;84;26003;-87
2021/08/21 06:33:52;;;;;;;11.45;7.53;;;;;;;16.93;76.88;97522.72;1656267;85;25642;-87
2021/08/21 06:36:21;;;;;;;10.70;8.23;;;;;;;17.00;76.87;97518.47;1666546;84;25526;-88
2021/08/21 06:38:48;;;;;;;11.12;8.48;;;;;;;17.06;76.91;97514.73;1678117;84;27822;-88
2021/08/21 06:41:15;;;;;;;16.57;9.53;;;;;;;17.14;76.86;97522.52;1661997;84;26054;-89
2021/08/21 06:43:45;;;;;;;14.55;9.80;;;;;;;17.23;76.78;97515.55;1639292;86;25561;-87
2021/08/21 06:46:21;;;;;;;12.98;9.83;;;;;;;17.36;76.51;97525.27;1656936;84;26125;-88
2021/08/21 06:48:49;;;;;;;13.53;8.70;;;;;;;17.47;76.36;97522.44;1680649;83;25564;-87
2021/08/21 06:51:19;;;;;;;11.80;8.13;;;;;;;17.61;76.25;97532.45;1656202;85;27869;-88
2021/08/21 06:53:48;;;;;;;8.80;7.28;;;;;;;17.73;75.93;97526.36;1668888;85;25510;-89
2021/08/21 06:56:18;;;;;;;11.65;7.20;;;;;;;17.87;75.56;97521.34;1678198;85;25202;-88
2021/08/21 06:58:46;;;;;;;9.25;6.67;;;;;;;17.97;75.27;97525.55;1672259;85;25489;-86
2021/08/21 07:01:13;;;;;;;9.23;6.70;;;;;;;18.06;74.97;97528.11;1669164;85;25419;-86
2021/08/21 07:03:43;;;;;;;9.43;7.40;;;;;;;18.17;74.86;97525.77;1672723;85;27361;-86
2021/08/21 07:06:23;;;;;;;9.35;6.40;;;;;;;18.28;74.61;97528.89;1664410;85;25859;-86
2021/08/21 07:08:52;;;;;;;7.62;6.05;;;;;;;18.24;74.33;97505.88;1646745;86;25565;-86
2021/08/21 07:11:19;;;;;;;8.05;6.42;;;;;;;18.48;74.05;97531.53;1676500;84;25736;-89
2021/08/21 07:13:49;;;;;;;9.33;6.03;;;;;;;18.60;73.86;97533.05;1689997;83;26285;-89
2021/08/21 07:16:16;;;;;;;8.60;6.03;;;;;;;18.70;73.71;97535.91;1709486;83;27450;-86
2021/08/21 07:18:42;;;;;;;7.30;5.78;;;;;;;18.79;73.35;97531.31;1697343;84;25189;-86
2021/08/21 07:21:12;;;;;;;7.95;5.83;;;;;;;18.88;72.98;97542.05;1693361;84;25434;-87
2021/08/21 07:23:43;;;;;;;6.67;5.70;;;;;;;19.00;72.81;97544.06;1693490;84;25654;-86
2021/08/21 07:26:12;;;;;;;5.93;5.27;;;;;;;19.08;72.52;97544.14;1699602;83;25481;-87
2021/08/21 07:28:41;;;;;;;6.95;5.47;;;;;;;19.19;72.32;97544.48;1680205;84;26459;-86
2021/08/21 07:31:07;;;;;;;7.45;5.33;;;;;;;19.24;71.76;97547.24;1679836;84;25531;-88
2021/08/21 07:33:37;;;;;;;7.20;5.78;;;;;;;19.26;71.45;97549.18;1660431;86;25420;-86
2021/08/21 07:36:07;;;;;;;7.60;5.00;;;;;;;19.32;71.28;97546.77;1660675;86;26104;-88
2021/08/21 07:38:34;;;;;;;5.75;4.67;;;;;;;19.35;71.23;97549.78;1662170;86;25221;-89
2021/08/21 07:41:05;;;;;;;8.58;5.40;;;;;;;19.42;70.86;97550.94;1661249;85;27546;-88
2021/08/21 07:43:31;;;;;;;5.80;4.85;;;;;;;19.56;70.65;97553.49;1658943;85;25533;-87
2021/08/21 07:45:58;;;;;;;6.00;4.75;;;;;;;19.64;70.33;97554.37;1699078;84;25504;-87
2021/08/21 07:48:28;;;;;;;5.53;4.33;;;;;;;19.68;69.96;97559.58;1711680;82;25722;-87
2021/08/21 07:50:55;;;;;;;7.10;4.80;;;;;;;19.70;69.42;97558.78;1695284;84;25504;-87
2021/08/21 07:53:22;;;;;;;5.45;4.15;;;;;;;19.77;69.34;97558.02;1697645;84;27971;-86
2021/08/21 07:55:48;;;;;;;6.92;4.75;;;;;;;19.96;69.20;97555.62;1700686;83;25562;-86
2021/08/21 07:58:15;;;;;;;8.15;4.70;;;;;;;20.03;68.66;97554.02;1698700;82;25292;-87
2021/08/21 08:00:42;;;;;;;7.62;4.58;;;;;;;20.10;68.29;97549.09;1669900;82;25517;-86
2021/08/21 08:03:12;;;;;;;5.95;4.50;;;;;;;20.22;68.08;97550.23;1694343;84;25773;-87
2021/08/21 08:05:38;;;;;;;6.30;5.67;;;;;;;20.30;68.02;97553.81;1715734;83;27433;-88
2021/08/21 08:08:05;;;;;;;9.65;5.83;;;;;;;20.39;67.43;97555.81;1707234;82;25456;-86
2021/08/21 08:10:43;;;;;;;8.50;5.90;;;;;;;20.39;67.07;97555.81;1657212;85;36793;-87
2021/08/21 08:13:11;;;;;;;10.23;5.85;;;;;;;20.51;67.20;97557.48;1663692;84;25912;-87
2021/08/21 08:15:47;;;;;;;10.75;6.87;;;;;;;20.70;66.77;97553.11;1711910;82;25264;-87
2021/08/21 08:18:13;;;;;;;9.00;6.03;;;;;;;20.72;66.44;97536.66;1699591;82;27329;-87
2021/08/21 08:20:42;;;;;;;8.90;6.10;;;;;;;20.94;66.03;97556.97;1700240;82;25429;-86
2021/08/21 08:23:11;;;;;;;6.60;5.53;;;;;;;21.11;65.45;97541.06;1694870;82;25509;-87
2021/08/21 08:25:39;;;;;;;8.55;6.17;;;;;;;21.11;65.45;97541.06;1698099;84;25744;-86
2021/08/21 08:28:06;;;;;;;7.60;5.20;;;;;;;21.34;64.92;97560.83;1700251;83;25469;-87
2021/08/21 08:30:35;;;;;;;6.55;5.03;;;;;;;21.39;64.83;97567.67;1693785;83;27461;-87
2021/08/21 08:33:02;;;;;;;6.95;5.03;;;;;;;21.33;64.88;97555.06;1719092;82;25195;-88
2021/08/21 08:35:29;;;;;;;5.47;4.42;;;;;;;21.98;64.25;97567.00;1700488;82;25531;-87
2021/08/21 08:37:55;;;;;;;6.60;5.12;;;;;;;21.98;64.25;97567.00;1666813;84;25669;-88
2021/08/21 08:40:23;;;;;;;5.00;4.42;;;;;;;22.23;63.89;97537.47;1704676;83;25485;-87
2021/08/21 08:42:49;;;;;;;6.47;5.00;;;;;;;22.56;62.88;97568.12;1708182;82;27403;-88
2021/08/21 08:45:18;;;;;;;5.35;4.62;;;;;;;22.51;61.80;97565.38;1700679;82;25389;-87
2021/08/21 08:47:45;;;;;;;5.55;4.35;;;;;;;22.32;61.25;97561.10;1701719;82;25582;-86
2021/08/21 08:50:13;;;;;;;5.50;4.58;;;;;;;22.20;61.44;97567.48;1697546;82;25621;-87
2021/08/21 08:52:42;;;;;;;6.25;4.80;;;;;;;22.39;62.05;97560.23;1670022;84;25603;-89
2021/08/21 08:55:11;;;;;;;7.58;4.75;;;;;;;22.82;61.83;97542.66;1668496;84;27342;-87
2021/08/21 08:57:44;;;;;;;5.80;4.78;;;;;;;23.40;61.33;97563.38;1695846;83;25416;-89
2021/08/21 09:00:25;;;;;;;5.37;4.60;;;;;;;23.63;60.64;97549.66;1692946;83;25732;-87
2021/08/21 09:02:59;;;;;;;4.80;4.30;;;;;;;23.80;59.81;97571.79;1697216;83;26224;-88
2021/08/21 09:05:29;;;;;;;8.13;4.97;;;;;;;23.57;59.18;97566.52;1702876;83;25583;-90
2021/08/21 09:08:03;;;;;;;8.10;6.33;;;;;;;23.17;59.33;97575.41;1706938;82;26810;-87
2021/08/21 09:10:33;;;;;;;6.45;5.55;;;;;;;23.02;59.34;97570.03;1701507;83;25535;-88
2021/08/21 09:13:16;;;;;;;8.48;5.00;;;;;;;22.99;59.54;97569.22;1683747;83;25387;-88
2021/08/21 09:15:51;;;;;;;;;;;;;;;23.00;59.57;97568.11;1634505;87;25710;-88
2021/08/21 09:18:22;;;;;;;7.67;4.62;;;;;;;23.10;58.58;97569.40;1631632;86;25499;-88
2021/08/21 09:21:00;;;;;;;6.08;4.55;;;;;;;23.20;59.01;97572.61;1614006;87;27334;-88
2021/08/21 09:26:25;;;;;;;5.58;4.47;;;;;;;23.33;59.01;97570.58;1555672;90;25244;-86
2021/08/21 09:28:58;;;;;;;9.95;4.65;;;;;;;23.72;59.07;97566.92;1595328;87;26100;-87
2021/08/21 09:32:13;;;;;;;5.67;4.58;;;;;;;24.07;58.04;97563.77;1626761;87;25686;-90
2021/08/21 09:35:01;;;;;;;;;;;;;;;;;;;;;
2021/08/21 09:37:26;;;;;;;5.30;4.53;;;;;;;24.87;57.75;97567.13;1565997;87;25288;-91
2021/08/21 09:40:34;;;;;;;6.62;4.45;;;;;;;25.34;57.18;97576.61;1615091;87;25599;-86
2021/08/21 09:43:19;;;;;;;7.42;4.08;;;;;;;25.44;56.38;97573.66;1588618;87;25713;-86
2021/08/21 09:45:45;;;;;;;6.53;4.50;;;;;;;25.45;55.98;97575.86;1617061;87;25319;-88
2021/08/21 09:48:12;;;;;;;6.33;4.65;;;;;;;25.63;55.75;97576.94;1590152;88;27946;-89
2021/08/21 09:50:45;;;;;;;5.58;4.05;;;;;;;25.66;55.67;97572.20;1601449;87;25244;-88
2021/08/21 09:53:19;;;;;;;6.00;4.20;;;;;;;25.46;55.35;97550.70;1642816;84;25513;-88
2021/08/21 09:55:47;;;;;;;5.87;4.05;;;;;;;25.26;55.03;97567.60;1675320;83;25674;-87
2021/08/21 09:58:20;;;;;;;6.40;4.30;;;;;;;24.96;55.18;97579.98;1642199;84;25222;-86
2021/08/21 10:00:59;;;;;;;8.08;4.37;;;;;;;24.92;55.22;97571.17;1676595;83;25807;-87
2021/08/21 10:03:42;;;;;;;4.55;3.90;;;;;;;24.95;55.48;97569.23;1698096;84;25228;-90
2021/08/21 10:06:07;;;;;;;4.97;4.17;;;;;;;24.97;55.34;97572.52;1662089;85;25430;-86
2021/08/21 10:08:56;;;;;;;;;;;;;;;;;;;;;
2021/08/21 10:11:24;;;;;;;4.80;4.30;;;;;;;24.83;54.77;97572.98;1677420;85;25226;-86
2021/08/21 10:14:00;;;;;;;4.87;4.35;;;;;;;24.69;54.68;97569.58;1652838;85;26522;-88
2021/08/21 10:16:49;;;;;;;6.33;3.77;;;;;;;24.67;54.55;97570.44;1674487;83;25588;-88
2021/08/21 10:19:17;;;;;;;4.80;4.00;;;;;;;24.88;54.55;97577.02;1676541;85;25533;-85
2021/08/21 10:21:56;;;;;;;5.35;3.45;;;;;;;24.84;53.83;97552.53;1675277;84;25661;-87
2021/08/21 10:24:32;;;;;;;5.87;3.98;;;;;;;25.11;54.01;97570.64;1689533;83;25254;-89
2021/08/21 10:27:21;;;;;;;4.25;3.83;;;;;;;25.33;53.78;97570.81;1679556;84;27265;-87
2021/08/21 10:30:29;;;;;;;3.55;3.25;;;;;;;25.32;53.33;97570.55;1666122;84;25546;-86
2021/08/21 10:35:56;;;;;;;8.38;4.12;;;;;;;25.24;53.20;97567.67;1653063;85;25313;-86
2021/08/21 10:38:39;;;;;;;10.70;6.25;;;;;;;25.33;53.09;97574.96;1676404;83;25443;-86
2021/08/21 10:41:31;;;;;;;5.25;4.50;;;;;;;25.21;52.74;97569.65;1691596;84;27516;-86
2021/08/21 10:44:03;;;;;;;5.10;4.10;;;;;;;25.03;52.88;97563.02;1671512;83;25523;-88
2021/08/21 10:46:35;;;;;;;5.92;4.50;;;;;;;24.93;52.50;97560.42;1677167;85;25455;-86
2021/08/21 10:49:14;;;;;;;5.65;4.12;;;;;;;24.73;52.40;97565.12;1676565;84;25740;-88
2021/08/21 10:51:57;;;;;;;8.65;5.00;;;;;;;24.65;52.55;97556.11;1670899;83;25765;-86
2021/08/21 10:54:31;;;;;;;5.20;4.17;;;;;;;24.82;52.86;97562.50;1673543;83;27627;-89
2021/08/21 10:57:32;;;;;;;4.17;3.77;;;;;;;24.91;52.69;97540.54;1680473;84;25534;-87
2021/08/21 11:00:05;;;;;;;4.87;4.42;;;;;;;25.13;52.64;97558.15;1703792;83;25653;-91
2021/08/21 11:03:10;;;;;;;5.30;4.00;;;;;;;25.18;53.01;97565.55;1678131;83;25665;-87
2021/08/21 11:08:37;;;;;;;4.12;3.72;;;;;;;25.02;52.76;97550.33;1607632;88;27439;-86
2021/08/21 11:11:20;;;;;;;7.97;3.60;;;;;;;24.83;52.37;97561.94;1625469;87;25511;-87
2021/08/21 11:14:28;;;;;;;5.22;3.77;;;;;;;24.57;52.77;97556.78;1589104;89;25692;-88
2021/08/21 11:17:05;;;;;;;4.08;3.50;;;;;;;24.41;52.77;97558.11;1602651;88;25604;-88
2021/08/21 11:19:42;;;;;;;3.83;3.52;;;;;;;24.41;53.13;97558.93;1610262;88;25593;-88
2021/08/21 11:22:27;;;;;;;4.05;3.65;;;;;;;24.41;53.02;97553.97;1612956;88;27373;-87
2021/08/21 11:25:11;;;;;;;3.65;3.25;;;;;;;24.41;52.79;97551.21;1594430;88;25654;-86
2021/08/21 11:27:37;;;;;;;4.65;3.25;;;;;;;24.61;52.45;97545.42;1623990;87;25752;-86
2021/08/21 11:30:20;;;;;;;3.52;3.12;;;;;;;24.68;51.63;97548.62;1620531;86;26138;-87
2021/08/21 11:33:03;;;;;;;3.58;3.27;;;;;;;24.78;51.43;97552.60;1600995;88;25349;-87
2021/08/21 11:35:51;;;;;;;3.72;3.42;;;;;;;24.90;51.09;97545.23;1612855;88;27459;-88
2021/08/21 11:38:30;;;;;;;4.45;4.05;;;;;;;25.01;51.07;97548.69;1613828;87;25592;-84
2021/08/21 11:40:59;;;;;;;5.80;4.60;;;;;;;25.17;51.04;97547.33;1613366;86;26019;-87
2021/08/21 11:43:32;;;;;;;8.17;4.00;;;;;;;25.12;50.77;97526.68;1619288;88;25630;-88
2021/08/21 11:46:06;;;;;;;4.40;4.00;;;;;;;25.38;50.62;97548.61;1656532;85;25516;-88
2021/08/21 11:48:44;;;;;;;4.83;3.98;;;;;;;25.49;50.36;97545.92;1618988;87;26995;-87
2021/08/21 11:51:27;;;;;;;6.22;4.10;;;;;;;25.57;50.00;97543.59;1646404;84;25606;-87
2021/08/21 11:54:01;;;;;;;4.37;3.98;;;;;;;25.47;49.64;97521.94;1665063;84;25270;-87
2021/08/21 11:56:45;;;;;;;4.25;3.85;;;;;;;25.56;49.87;97537.80;1642213;85;25708;-88
2021/08/21 11:59:27;;;;;;;5.92;4.28;;;;;;;25.55;49.99;97543.08;1647953;85;25526;-87